sensor_id;sensor_type;location;lat;lon;timestamp;P1;durP1;ratioP1;P2;durP2;ratioP2
18267;SDS011;9260;49.998;19.880;2023-02-28T00:07:49;193.47;;;85.33;;
18267;SDS011;9260;49.998;19.880;2023-02-28T00:17:53;190.13;;;87.20;;
18267;SDS011;9260;49.998;19.880;2023-02-28T00:27:58;189.47;;;84.23;;
18267;SDS011;9260;49.998;19.880;2023-02-28T00:38:02;187.57;;;84.87;;
18267;SDS011;9260;49.998;19.880;2023-02-28T00:48:07;190.23;;;86.00;;
18267;SDS011;9260;49.998;19.880;2023-02-28T00:58:13;200.27;;;88.53;;
18267;SDS011;9260;49.998;19.880;2023-02-28T01:08:18;189.87;;;85.67;;
18267;SDS011;9260;49.998;19.880;2023-02-28T01:18:22;190.83;;;85.00;;
18267;SDS011;9260;49.998;19.880;2023-02-28T01:28:27;188.17;;;85.80;;
18267;SDS011;9260;49.998;19.880;2023-02-28T01:38:31;184.43;;;85.10;;
18267;SDS011;9260;49.998;19.880;2023-02-28T01:48:36;185.37;;;85.47;;
18267;SDS011;9260;49.998;19.880;2023-02-28T01:58:43;185.60;;;88.13;;
18267;SDS011;9260;49.998;19.880;2023-02-28T02:08:48;183.87;;;84.90;;
18267;SDS011;9260;49.998;19.880;2023-02-28T02:18:52;189.00;;;87.20;;
18267;SDS011;9260;49.998;19.880;2023-02-28T02:29:13;181.43;;;83.00;;
18267;SDS011;9260;49.998;19.880;2023-02-28T02:40:02;182.53;;;85.17;;
18267;SDS011;9260;49.998;19.880;2023-02-28T02:50:14;183.77;;;85.87;;
18267;SDS011;9260;49.998;19.880;2023-02-28T03:00:26;180.00;;;84.10;;
18267;SDS011;9260;49.998;19.880;2023-02-28T03:10:35;181.47;;;84.03;;
18267;SDS011;9260;49.998;19.880;2023-02-28T03:20:45;183.43;;;85.57;;
18267;SDS011;9260;49.998;19.880;2023-02-28T03:31:03;181.40;;;86.13;;
18267;SDS011;9260;49.998;19.880;2023-02-28T03:41:19;178.10;;;85.77;;
18267;SDS011;9260;49.998;19.880;2023-02-28T03:51:26;180.67;;;86.50;;
18267;SDS011;9260;49.998;19.880;2023-02-28T04:01:34;175.40;;;82.20;;
18267;SDS011;9260;49.998;19.880;2023-02-28T04:11:43;176.50;;;83.20;;
18267;SDS011;9260;49.998;19.880;2023-02-28T04:21:50;175.33;;;83.50;;
18267;SDS011;9260;49.998;19.880;2023-02-28T04:31:55;174.27;;;83.80;;
18267;SDS011;9260;49.998;19.880;2023-02-28T04:42:02;172.53;;;84.37;;
18267;SDS011;9260;49.998;19.880;2023-02-28T04:52:05;182.37;;;86.57;;
18267;SDS011;9260;49.998;19.880;2023-02-28T05:02:10;174.17;;;84.93;;
18267;SDS011;9260;49.998;19.880;2023-02-28T05:12:14;171.03;;;82.13;;
18267;SDS011;9260;49.998;19.880;2023-02-28T05:22:19;174.27;;;83.63;;
18267;SDS011;9260;49.998;19.880;2023-02-28T05:32:22;171.23;;;83.67;;
18267;SDS011;9260;49.998;19.880;2023-02-28T05:42:27;169.23;;;81.87;;
18267;SDS011;9260;49.998;19.880;2023-02-28T05:52:31;178.37;;;83.33;;
18267;SDS011;9260;49.998;19.880;2023-02-28T06:02:37;173.40;;;86.40;;
18267;SDS011;9260;49.998;19.880;2023-02-28T06:12:42;172.83;;;85.50;;
18267;SDS011;9260;49.998;19.880;2023-02-28T06:22:47;180.47;;;87.80;;
18267;SDS011;9260;49.998;19.880;2023-02-28T06:32:52;193.90;;;88.67;;
18267;SDS011;9260;49.998;19.880;2023-02-28T06:42:57;183.37;;;88.20;;
18267;SDS011;9260;49.998;19.880;2023-02-28T06:53:01;205.20;;;103.10;;
18267;SDS011;9260;49.998;19.880;2023-02-28T07:03:06;198.30;;;93.70;;
18267;SDS011;9260;49.998;19.880;2023-02-28T07:13:09;202.57;;;92.83;;
18267;SDS011;9260;49.998;19.880;2023-02-28T07:23:14;208.50;;;92.97;;
18267;SDS011;9260;49.998;19.880;2023-02-28T07:33:18;205.37;;;91.20;;
18267;SDS011;9260;49.998;19.880;2023-02-28T07:43:23;196.80;;;89.63;;
18267;SDS011;9260;49.998;19.880;2023-02-28T07:53:27;201.80;;;91.80;;
18267;SDS011;9260;49.998;19.880;2023-02-28T08:03:32;204.63;;;91.17;;
18267;SDS011;9260;49.998;19.880;2023-02-28T08:13:35;209.57;;;94.40;;
18267;SDS011;9260;49.998;19.880;2023-02-28T08:23:40;206.57;;;91.53;;
18267;SDS011;9260;49.998;19.880;2023-02-28T08:33:44;208.03;;;88.97;;
18267;SDS011;9260;49.998;19.880;2023-02-28T08:43:51;207.97;;;89.33;;
18267;SDS011;9260;49.998;19.880;2023-02-28T08:53:56;219.17;;;91.33;;
18267;SDS011;9260;49.998;19.880;2023-02-28T09:04:04;219.17;;;95.67;;
18267;SDS011;9260;49.998;19.880;2023-02-28T09:14:09;217.30;;;95.23;;
18267;SDS011;9260;49.998;19.880;2023-02-28T09:24:14;219.63;;;99.50;;
18267;SDS011;9260;49.998;19.880;2023-02-28T09:34:18;216.97;;;97.57;;
18267;SDS011;9260;49.998;19.880;2023-02-28T09:44:24;223.03;;;107.13;;
18267;SDS011;9260;49.998;19.880;2023-02-28T09:54:33;223.47;;;106.20;;
18267;SDS011;9260;49.998;19.880;2023-02-28T10:04:40;227.73;;;118.00;;
18267;SDS011;9260;49.998;19.880;2023-02-28T10:14:54;231.17;;;119.27;;
18267;SDS011;9260;49.998;19.880;2023-02-28T10:25:05;227.13;;;126.13;;
18267;SDS011;9260;49.998;19.880;2023-02-28T10:35:22;225.00;;;127.88;;
18267;SDS011;9260;49.998;19.880;2023-02-28T10:45:28;223.13;;;125.88;;
18267;SDS011;9260;49.998;19.880;2023-02-28T10:55:36;224.73;;;130.77;;
18267;SDS011;9260;49.998;19.880;2023-02-28T11:05:46;224.10;;;130.68;;
18267;SDS011;9260;49.998;19.880;2023-02-28T11:15:50;218.70;;;128.25;;
18267;SDS011;9260;49.998;19.880;2023-02-28T11:25:58;220.75;;;129.57;;
18267;SDS011;9260;49.998;19.880;2023-02-28T11:36:09;225.25;;;133.50;;
18267;SDS011;9260;49.998;19.880;2023-02-28T11:46:20;216.45;;;128.98;;
18267;SDS011;9260;49.998;19.880;2023-02-28T11:56:36;223.90;;;140.27;;
18267;SDS011;9260;49.998;19.880;2023-02-28T12:06:45;218.25;;;137.77;;
18267;SDS011;9260;49.998;19.880;2023-02-28T12:16:55;214.02;;;130.23;;
18267;SDS011;9260;49.998;19.880;2023-02-28T12:27:16;215.57;;;134.02;;
18267;SDS011;9260;49.998;19.880;2023-02-28T12:37:25;221.07;;;140.85;;
18267;SDS011;9260;49.998;19.880;2023-02-28T12:47:35;208.40;;;130.20;;
18267;SDS011;9260;49.998;19.880;2023-02-28T12:57:41;216.45;;;135.55;;
18267;SDS011;9260;49.998;19.880;2023-02-28T13:07:58;209.40;;;127.20;;
18267;SDS011;9260;49.998;19.880;2023-02-28T13:18:42;220.98;;;137.18;;
18267;SDS011;9260;49.998;19.880;2023-02-28T13:39:47;213.52;;;130.43;;
18267;SDS011;9260;49.998;19.880;2023-02-28T13:49:52;221.80;;;134.85;;
18267;SDS011;9260;49.998;19.880;2023-02-28T14:00:02;214.55;;;130.18;;
18267;SDS011;9260;49.998;19.880;2023-02-28T14:10:23;227.48;;;143.48;;
18267;SDS011;9260;49.998;19.880;2023-02-28T14:20:32;230.60;;;137.38;;
18267;SDS011;9260;49.998;19.880;2023-02-28T14:30:40;222.52;;;129.77;;
18267;SDS011;9260;49.998;19.880;2023-02-28T14:40:58;224.87;;;130.67;;
18267;SDS011;9260;49.998;19.880;2023-02-28T14:51:06;228.63;;;125.40;;
18267;SDS011;9260;49.998;19.880;2023-02-28T15:01:11;227.43;;;112.30;;
18267;SDS011;9260;49.998;19.880;2023-02-28T15:11:14;228.43;;;110.83;;
18267;SDS011;9260;49.998;19.880;2023-02-28T15:21:24;222.40;;;99.07;;
18267;SDS011;9260;49.998;19.880;2023-02-28T15:31:32;220.27;;;95.77;;
18267;SDS011;9260;49.998;19.880;2023-02-28T15:42:11;221.40;;;97.37;;
18267;SDS011;9260;49.998;19.880;2023-02-28T15:52:15;217.07;;;95.53;;
18267;SDS011;9260;49.998;19.880;2023-02-28T16:02:29;218.00;;;94.47;;
18267;SDS011;9260;49.998;19.880;2023-02-28T16:12:36;211.97;;;96.17;;
18267;SDS011;9260;49.998;19.880;2023-02-28T16:22:43;210.17;;;92.50;;
18267;SDS011;9260;49.998;19.880;2023-02-28T16:32:47;209.43;;;90.23;;
18267;SDS011;9260;49.998;19.880;2023-02-28T16:42:53;208.00;;;99.00;;
18267;SDS011;9260;49.998;19.880;2023-02-28T16:53:01;204.47;;;87.67;;
18267;SDS011;9260;49.998;19.880;2023-02-28T17:03:08;211.13;;;98.60;;
18267;SDS011;9260;49.998;19.880;2023-02-28T17:13:33;195.97;;;87.87;;
18267;SDS011;9260;49.998;19.880;2023-02-28T17:23:38;199.03;;;85.83;;
18267;SDS011;9260;49.998;19.880;2023-02-28T17:33:42;201.97;;;85.63;;
18267;SDS011;9260;49.998;19.880;2023-02-28T17:43:47;201.27;;;84.30;;
18267;SDS011;9260;49.998;19.880;2023-02-28T17:53:51;193.90;;;83.30;;
18267;SDS011;9260;49.998;19.880;2023-02-28T18:03:56;205.77;;;85.70;;
18267;SDS011;9260;49.998;19.880;2023-02-28T18:14:00;190.83;;;81.23;;
18267;SDS011;9260;49.998;19.880;2023-02-28T18:24:05;206.73;;;87.33;;
18267;SDS011;9260;49.998;19.880;2023-02-28T18:34:09;196.83;;;89.43;;
18267;SDS011;9260;49.998;19.880;2023-02-28T18:44:17;197.07;;;85.17;;
18267;SDS011;9260;49.998;19.880;2023-02-28T18:54:21;191.07;;;86.43;;
18267;SDS011;9260;49.998;19.880;2023-02-28T19:04:26;188.73;;;84.93;;
18267;SDS011;9260;49.998;19.880;2023-02-28T19:14:30;185.50;;;83.30;;
18267;SDS011;9260;49.998;19.880;2023-02-28T19:24:35;198.27;;;86.73;;
18267;SDS011;9260;49.998;19.880;2023-02-28T19:34:41;198.90;;;91.87;;
18267;SDS011;9260;49.998;19.880;2023-02-28T19:44:47;192.07;;;87.53;;
18267;SDS011;9260;49.998;19.880;2023-02-28T19:54:50;192.33;;;86.83;;
18267;SDS011;9260;49.998;19.880;2023-02-28T20:04:55;193.13;;;91.60;;
18267;SDS011;9260;49.998;19.880;2023-02-28T20:15:01;200.77;;;92.63;;
18267;SDS011;9260;49.998;19.880;2023-02-28T20:25:07;200.00;;;91.30;;
18267;SDS011;9260;49.998;19.880;2023-02-28T20:35:12;203.27;;;92.80;;
18267;SDS011;9260;49.998;19.880;2023-02-28T20:45:17;208.73;;;95.37;;
18267;SDS011;9260;49.998;19.880;2023-02-28T20:55:21;214.53;;;110.87;;
18267;SDS011;9260;49.998;19.880;2023-02-28T21:05:26;217.47;;;108.90;;
18267;SDS011;9260;49.998;19.880;2023-02-28T21:15:29;207.83;;;93.90;;
18267;SDS011;9260;49.998;19.880;2023-02-28T21:25:35;209.63;;;102.20;;
18267;SDS011;9260;49.998;19.880;2023-02-28T21:35:38;203.37;;;96.93;;
18267;SDS011;9260;49.998;19.880;2023-02-28T21:45:43;210.77;;;101.23;;
18267;SDS011;9260;49.998;19.880;2023-02-28T21:55:46;211.27;;;101.07;;
18267;SDS011;9260;49.998;19.880;2023-02-28T22:05:51;203.27;;;98.90;;
18267;SDS011;9260;49.998;19.880;2023-02-28T22:15:55;213.43;;;101.47;;
18267;SDS011;9260;49.998;19.880;2023-02-28T22:26:05;228.07;;;104.87;;
18267;SDS011;9260;49.998;19.880;2023-02-28T22:36:12;235.17;;;108.60;;
18267;SDS011;9260;49.998;19.880;2023-02-28T22:46:19;231.77;;;109.10;;
18267;SDS011;9260;49.998;19.880;2023-02-28T22:56:25;241.60;;;107.77;;
18267;SDS011;9260;49.998;19.880;2023-02-28T23:06:33;232.77;;;108.53;;
18267;SDS011;9260;49.998;19.880;2023-02-28T23:16:39;235.63;;;108.93;;
18267;SDS011;9260;49.998;19.880;2023-02-28T23:26:46;229.63;;;106.87;;
18267;SDS011;9260;49.998;19.880;2023-02-28T23:36:53;247.07;;;131.50;;
18267;SDS011;9260;49.998;19.880;2023-02-28T23:46:59;243.00;;;115.43;;
18267;SDS011;9260;49.998;19.880;2023-02-28T23:57:03;243.47;;;110.93;;
